createdAt,value
2018-10-17T00:00:19.843Z,99159.70
2018-10-17T00:02:52.081Z,99164.28
2018-10-17T00:05:24.084Z,99169.87
2018-10-17T00:07:55.915Z,99184.72
2018-10-17T00:10:27.850Z,99178.75
2018-10-17T00:12:59.795Z,99180.70
2018-10-17T00:15:32.346Z,99189.08
2018-10-17T00:18:04.484Z,99184.59
2018-10-17T00:20:36.282Z,99181.59
2018-10-17T00:23:08.274Z,99183.30
2018-10-17T00:25:40.189Z,99179.31
2018-10-17T00:28:12.577Z,99186.00
2018-10-17T00:30:44.606Z,99185.44
2018-10-17T00:33:16.868Z,99195.30
2018-10-17T00:35:49.143Z,99202.95
2018-10-17T00:38:21.291Z,99205.00
2018-10-17T00:40:53.453Z,99202.13
2018-10-17T00:43:25.632Z,99201.05
2018-10-17T00:45:58.142Z,99205.01
2018-10-17T00:48:30.123Z,99205.24
2018-10-17T00:51:02.616Z,99205.24
2018-10-17T00:53:34.452Z,99216.45
2018-10-17T00:56:06.763Z,99221.61
2018-10-17T00:58:38.805Z,99223.78
2018-10-17T01:01:10.597Z,99227.02
2018-10-17T01:03:42.860Z,99233.11
2018-10-17T01:06:14.694Z,99230.72
2018-10-17T01:08:46.639Z,99232.63
2018-10-17T01:11:18.594Z,99227.97
2018-10-17T01:13:50.916Z,99227.83
2018-10-17T01:16:23.365Z,99231.81
2018-10-17T01:18:55.454Z,99237.19
2018-10-17T01:21:27.246Z,99241.84
2018-10-17T01:23:59.242Z,99241.00
2018-10-17T01:26:31.153Z,99248.36
2018-10-17T01:29:04.739Z,99258.64
2018-10-17T01:31:36.631Z,99263.35
2018-10-17T01:34:08.749Z,99262.95
2018-10-17T01:36:40.924Z,99267.38
2018-10-17T01:39:13.059Z,99275.41
2018-10-17T01:41:44.827Z,99272.62
2018-10-17T01:44:16.837Z,99277.37
2018-10-17T01:46:49.469Z,99285.40
2018-10-17T01:49:21.594Z,99284.44
2018-10-17T01:51:53.540Z,99280.20
2018-10-17T01:54:25.609Z,99276.59
2018-10-17T01:56:57.538Z,99276.75
2018-10-17T01:59:29.611Z,99270.73
2018-10-17T02:02:01.830Z,99278.16
2018-10-17T02:04:33.762Z,99282.93
2018-10-17T02:07:06.015Z,99283.22
2018-10-17T02:09:37.959Z,99283.19
2018-10-17T02:12:09.995Z,99290.75
2018-10-17T02:14:41.915Z,99294.36
2018-10-17T02:17:14.882Z,99303.86
2018-10-17T02:19:47.002Z,99303.16
2018-10-17T02:22:19.114Z,99309.19
2018-10-17T02:24:51.550Z,99320.95
2018-10-17T02:27:23.330Z,99314.46
2018-10-17T02:29:55.677Z,99315.25
2018-10-17T02:32:27.541Z,99318.25
2018-10-17T02:35:04.418Z,99332.53
2018-10-17T02:37:36.379Z,99331.85
2018-10-17T02:40:07.931Z,99330.42
2018-10-17T02:42:40.095Z,99332.38
2018-10-17T02:45:14.260Z,99339.19
2018-10-17T02:47:47.155Z,99344.84
2018-10-17T02:50:19.282Z,99347.59
2018-10-17T02:52:52.527Z,99345.98
2018-10-17T02:55:24.594Z,99349.88
2018-10-17T02:57:57.457Z,99354.52
2018-10-17T03:00:29.948Z,99355.19
2018-10-17T03:03:02.004Z,99365.91
2018-10-17T03:05:34.230Z,99360.53
2018-10-17T03:08:06.539Z,99357.50
2018-10-17T03:10:38.895Z,99355.78
2018-10-17T03:13:11.090Z,99352.20
2018-10-17T03:15:43.340Z,99358.97
2018-10-17T03:18:15.993Z,99369.88
2018-10-17T03:20:48.311Z,99367.36
2018-10-17T03:23:20.183Z,99363.75
2018-10-17T03:25:52.280Z,99365.14
2018-10-17T03:28:24.543Z,99362.28
2018-10-17T03:30:57.752Z,99362.00
2018-10-17T03:33:30.732Z,99361.09
2018-10-17T03:36:03.000Z,99347.66
2018-10-17T03:38:35.187Z,99356.44
2018-10-17T03:41:07.647Z,99363.96
2018-10-17T03:43:39.867Z,99364.51
2018-10-17T03:46:12.008Z,99364.95
2018-10-17T03:48:44.860Z,99362.06
2018-10-17T03:51:17.139Z,99371.22
2018-10-17T03:53:49.114Z,99361.69
2018-10-17T03:56:21.252Z,99370.31
2018-10-17T03:58:53.343Z,99369.95
2018-10-17T04:01:25.575Z,99366.80
2018-10-17T04:03:57.717Z,99371.28
2018-10-17T04:06:29.967Z,99367.08
2018-10-17T04:09:01.739Z,99361.35
2018-10-17T04:11:34.103Z,99362.56
2018-10-17T04:14:06.254Z,99368.49
2018-10-17T04:16:38.361Z,99368.87
2018-10-17T04:19:10.892Z,99367.48
2018-10-17T04:21:43.171Z,99366.64
2018-10-17T04:24:15.067Z,99368.55
2018-10-17T04:26:47.532Z,99372.00
2018-10-17T04:29:19.844Z,99369.30
2018-10-17T04:31:52.311Z,99361.83
2018-10-17T04:34:24.805Z,99359.51
2018-10-17T04:36:56.914Z,99358.74
2018-10-17T04:39:28.961Z,99353.39
2018-10-17T04:42:01.393Z,99356.23
2018-10-17T04:44:33.814Z,99349.88
2018-10-17T04:47:06.179Z,99351.08
2018-10-17T04:49:39.298Z,99346.55
2018-10-17T04:52:11.816Z,99340.78
2018-10-17T04:54:44.023Z,99335.94
2018-10-17T04:57:16.196Z,99340.97
2018-10-17T04:59:48.293Z,99335.95
2018-10-17T05:02:20.514Z,99325.59
2018-10-17T05:04:53.068Z,99326.23
2018-10-17T05:07:25.614Z,99324.21
2018-10-17T05:09:57.866Z,99323.55
2018-10-17T05:12:32.336Z,99330.66
2018-10-17T05:17:26.385Z,99315.77
2018-10-17T05:19:59.666Z,99313.78
2018-10-17T05:22:31.374Z,99307.30
2018-10-17T05:37:34.045Z,99281.52
2018-10-17T05:40:06.092Z,99278.11
2018-10-17T05:42:38.052Z,99279.55
2018-10-17T05:45:10.932Z,99274.23
2018-10-17T05:47:42.835Z,99267.52
2018-10-17T05:50:15.108Z,99262.10
2018-10-17T05:52:46.828Z,99258.73
2018-10-17T05:55:22.223Z,99250.62
2018-10-17T05:57:54.803Z,99252.94
2018-10-17T06:00:26.825Z,99241.66
2018-10-17T06:02:59.168Z,99235.08
2018-10-17T06:05:31.418Z,99235.25
2018-10-17T06:10:43.484Z,99222.50
2018-10-17T06:13:15.538Z,99219.77
2018-10-17T06:15:47.912Z,99213.09
2018-10-17T06:18:19.851Z,99216.61
2018-10-17T06:20:52.710Z,99209.67
2018-10-17T06:23:25.022Z,99209.70
2018-10-17T06:25:56.868Z,99198.10
2018-10-17T06:28:29.146Z,99197.64
2018-10-17T06:31:01.340Z,99192.17
2018-10-17T06:33:33.558Z,99189.00
2018-10-17T06:36:05.864Z,99187.46
2018-10-17T06:38:38.084Z,99179.41
2018-10-17T06:41:10.353Z,99175.61
2018-10-17T06:43:42.361Z,99171.55
2018-10-17T06:46:14.868Z,99161.29
2018-10-17T06:48:46.977Z,99161.56
2018-10-17T06:51:19.393Z,99157.00
2018-10-17T06:53:51.636Z,99145.47
2018-10-17T06:56:23.929Z,99151.48
2018-10-17T06:58:56.305Z,99145.56
2018-10-17T07:01:28.581Z,99141.69
2018-10-17T07:04:01.074Z,99134.00
2018-10-17T07:06:33.240Z,99127.81
2018-10-17T07:09:05.755Z,99127.76
2018-10-17T07:11:38.128Z,99128.69
2018-10-17T07:14:10.384Z,99118.36
2018-10-17T07:16:42.743Z,99114.22
2018-10-17T07:19:14.872Z,99109.13
2018-10-17T07:21:47.425Z,99103.41
2018-10-17T07:24:19.566Z,99102.89
2018-10-17T07:26:51.832Z,99095.02
2018-10-17T07:29:23.843Z,99096.16
2018-10-17T07:31:55.923Z,99085.59
2018-10-17T07:34:28.047Z,99079.77
2018-10-17T07:37:00.228Z,99072.70
2018-10-17T07:39:32.224Z,99072.22
2018-10-17T07:42:04.453Z,99070.05
2018-10-17T07:44:36.452Z,99068.91
2018-10-17T07:47:08.493Z,99067.84
2018-10-17T07:49:40.621Z,99062.20
2018-10-17T07:52:13.076Z,99057.98
2018-10-17T07:54:45.073Z,99060.25
2018-10-17T07:57:17.282Z,99049.50
2018-10-17T07:59:49.200Z,99050.98
2018-10-17T08:02:21.328Z,99052.25
2018-10-17T08:04:53.477Z,99038.22
2018-10-17T08:07:25.475Z,99044.64
2018-10-17T08:09:57.269Z,99031.10
2018-10-17T08:12:29.315Z,99030.38
2018-10-17T08:15:01.371Z,99027.72
2018-10-17T08:17:33.534Z,99025.09
2018-10-17T08:20:05.586Z,99018.19
2018-10-17T08:25:17.603Z,99013.74
2018-10-17T08:27:49.702Z,99014.92
2018-10-17T08:33:32.606Z,98994.25
2018-10-17T08:36:04.917Z,99000.61
2018-10-17T08:38:37.085Z,98994.78
2018-10-17T08:41:09.135Z,98989.17
2018-10-17T08:43:41.552Z,98984.42
2018-10-17T08:46:14.616Z,98981.26
2018-10-17T08:48:47.129Z,98970.64
2018-10-17T08:51:19.254Z,98973.39
2018-10-17T08:53:51.850Z,98969.14
2018-10-17T08:56:23.960Z,98966.66
2018-10-17T08:58:56.009Z,98963.34
2018-10-17T09:01:28.212Z,98956.37
2018-10-17T09:04:02.303Z,98955.63
2018-10-17T09:06:34.320Z,98953.16
2018-10-17T09:09:10.369Z,98950.51
2018-10-17T09:11:42.620Z,98947.81
2018-10-17T09:14:14.967Z,98945.66
2018-10-17T09:16:47.193Z,98936.98
2018-10-17T09:19:19.588Z,98945.52
2018-10-17T09:21:52.054Z,98944.30
2018-10-17T09:24:24.429Z,98939.91
2018-10-17T09:26:56.430Z,98934.84
2018-10-17T09:29:28.807Z,98935.20
2018-10-17T09:32:01.593Z,98926.72
2018-10-17T09:34:33.809Z,98929.42
2018-10-17T09:37:05.911Z,98928.56
2018-10-17T09:39:38.228Z,98924.55
2018-10-17T09:42:10.457Z,98925.52
2018-10-17T09:44:42.772Z,98925.83
2018-10-17T09:47:14.731Z,98923.16
2018-10-17T09:49:46.648Z,98918.84
2018-10-17T09:52:18.670Z,98924.25
2018-10-17T09:54:51.173Z,98914.52
2018-10-17T09:57:24.205Z,98916.41
2018-10-17T09:59:56.340Z,98918.85
2018-10-17T10:02:28.497Z,98914.45
2018-10-17T10:05:00.867Z,98908.18
2018-10-17T10:07:32.866Z,98905.56
2018-10-17T10:10:04.896Z,98903.86
2018-10-17T10:12:37.120Z,98907.89
2018-10-17T10:15:09.333Z,98901.52
2018-10-17T10:17:41.470Z,98899.41
2018-10-17T10:20:13.662Z,98900.27
2018-10-17T10:22:45.742Z,98897.51
2018-10-17T10:25:18.588Z,98897.59
2018-10-17T10:27:50.614Z,98894.38
2018-10-17T10:30:22.456Z,98895.81
2018-10-17T10:32:54.576Z,98891.03
2018-10-17T10:35:27.060Z,98886.34
2018-10-17T10:37:59.054Z,98882.97
2018-10-17T10:40:31.203Z,98888.75
2018-10-17T10:43:03.508Z,98888.45
2018-10-17T10:45:35.843Z,98893.88
2018-10-17T10:48:08.061Z,98896.09
2018-10-17T10:50:40.412Z,98899.70
2018-10-17T10:53:12.525Z,98890.80
2018-10-17T10:55:44.838Z,98891.73
2018-10-17T10:58:17.346Z,98894.17
2018-10-17T11:00:49.533Z,98898.41
2018-10-17T11:03:21.313Z,98900.98
2018-10-17T11:05:53.507Z,98894.11
2018-10-17T11:08:25.491Z,98890.48
2018-10-17T11:10:57.814Z,98892.67
2018-10-17T11:13:29.724Z,98896.89
2018-10-17T11:16:01.885Z,98893.14
2018-10-17T11:18:33.826Z,98898.02
2018-10-17T11:21:06.032Z,98896.56
2018-10-17T11:23:38.181Z,98897.08
2018-10-17T11:26:11.131Z,98897.63
2018-10-17T11:28:43.377Z,98903.23
2018-10-17T11:31:15.464Z,98899.91
2018-10-17T11:33:47.545Z,98899.59
2018-10-17T11:36:19.663Z,98904.21
2018-10-17T11:38:51.828Z,98909.91
2018-10-17T11:41:24.032Z,98911.59
2018-10-17T11:43:56.132Z,98907.96
2018-10-17T11:46:28.369Z,98920.53
2018-10-17T11:49:00.842Z,98917.14
2018-10-17T11:51:33.049Z,98923.15
2018-10-17T11:54:05.158Z,98924.70
2018-10-17T11:56:37.801Z,98929.61
2018-10-17T11:59:11.160Z,98924.19
2018-10-17T12:01:43.131Z,98930.92
2018-10-17T12:04:15.375Z,98925.42
2018-10-17T12:06:47.440Z,98933.55
2018-10-17T12:09:19.483Z,98932.98
2018-10-17T12:11:51.675Z,98938.11
2018-10-17T12:14:23.782Z,98940.34
2018-10-17T12:16:55.742Z,98935.20
2018-10-17T12:19:28.037Z,98943.73
2018-10-17T12:22:00.245Z,98944.95
2018-10-17T12:24:32.959Z,98948.30
2018-10-17T12:27:05.421Z,98947.14
2018-10-17T12:29:37.579Z,98951.83
2018-10-17T12:32:09.898Z,98956.63
2018-10-17T12:34:41.849Z,98953.14
2018-10-17T12:37:13.952Z,98951.31
2018-10-17T12:39:46.273Z,98958.49
2018-10-17T12:42:18.449Z,98959.16
2018-10-17T12:44:50.520Z,98962.83
2018-10-17T12:47:22.789Z,98961.48
2018-10-17T12:49:54.963Z,98965.11
2018-10-17T12:52:27.228Z,98966.47
2018-10-17T12:54:58.780Z,98966.82
2018-10-17T12:57:31.998Z,98969.81
2018-10-17T13:00:04.062Z,98970.97
2018-10-17T13:02:36.154Z,98976.30
2018-10-17T13:05:09.024Z,98978.81
2018-10-17T13:07:41.124Z,98985.73
2018-10-17T13:10:13.353Z,98986.06
2018-10-17T13:12:45.566Z,98989.70
2018-10-17T13:15:17.536Z,98988.84
2018-10-17T13:17:49.480Z,98994.66
2018-10-17T13:20:21.808Z,98999.65
2018-10-17T13:22:54.023Z,99005.25
2018-10-17T13:25:26.059Z,99002.59
2018-10-17T13:27:58.795Z,99009.96
2018-10-17T13:30:31.345Z,99007.61
2018-10-17T13:33:03.198Z,99006.85
2018-10-17T13:35:35.109Z,99018.45
2018-10-17T13:38:07.076Z,99018.28
2018-10-17T13:43:14.931Z,99028.89
2018-10-17T13:45:46.928Z,99028.39
2018-10-17T13:48:19.162Z,99027.71
2018-10-17T13:53:03.436Z,99031.64
2018-10-17T13:55:35.590Z,99033.75
2018-10-17T13:58:08.706Z,99034.20
2018-10-17T14:00:41.119Z,99037.68
2018-10-17T14:03:13.149Z,99038.81
2018-10-17T14:05:45.126Z,99045.91
2018-10-17T14:08:17.287Z,99047.09
2018-10-17T14:10:49.727Z,99050.03
2018-10-17T14:13:22.406Z,99048.56
2018-10-17T14:15:54.120Z,99050.80
2018-10-17T14:18:25.890Z,99047.53
2018-10-17T14:20:57.493Z,99058.58
2018-10-17T14:23:29.369Z,99061.28
2018-10-17T14:26:01.456Z,99058.95
2018-10-17T14:28:34.075Z,99065.59
2018-10-17T14:31:06.405Z,99066.46
2018-10-17T14:33:38.389Z,99073.34
2018-10-17T14:36:10.500Z,99067.36
2018-10-17T14:38:42.641Z,99072.73
2018-10-17T14:41:14.802Z,99072.88
2018-10-17T14:43:46.802Z,99080.03
2018-10-17T14:46:19.029Z,99071.91
2018-10-17T14:48:50.816Z,99069.25
2018-10-17T14:51:23.068Z,99074.91
2018-10-17T14:53:54.854Z,99077.23
2018-10-17T14:56:27.678Z,99077.78
2018-10-17T14:59:00.164Z,99073.85
2018-10-17T15:01:32.529Z,99073.19
2018-10-17T15:04:04.268Z,99071.03
2018-10-17T15:06:36.373Z,99078.80
2018-10-17T15:09:10.287Z,99084.48
2018-10-17T15:11:42.619Z,99077.63
2018-10-17T15:14:14.617Z,99078.13
2018-10-17T15:16:46.727Z,99077.73
2018-10-17T15:19:18.511Z,99081.09
2018-10-17T15:22:05.297Z,99083.74
2018-10-17T15:24:37.478Z,99081.91
2018-10-17T15:27:09.774Z,99086.11
2018-10-17T15:29:42.601Z,99084.09
2018-10-17T15:32:14.697Z,99086.42
2018-10-17T15:34:46.610Z,99081.25
2018-10-17T15:37:18.780Z,99077.90
2018-10-17T15:39:50.790Z,99085.98
2018-10-17T15:42:22.719Z,99084.30
2018-10-17T15:44:54.890Z,99082.50
2018-10-17T15:47:27.131Z,99082.05
2018-10-17T15:49:58.886Z,99086.69
2018-10-17T15:52:31.068Z,99087.17
2018-10-17T15:55:02.717Z,99087.08
2018-10-17T15:57:35.123Z,99087.13
2018-10-17T16:00:09.515Z,99088.52
2018-10-17T16:02:41.883Z,99092.84
2018-10-17T16:05:13.974Z,99093.41
2018-10-17T16:07:45.821Z,99081.01
2018-10-17T16:10:17.916Z,99081.06
2018-10-17T16:12:50.130Z,99082.53
2018-10-17T16:15:22.166Z,99082.12
2018-10-17T16:17:54.305Z,99079.52
2018-10-17T16:20:26.157Z,99079.52
2018-10-17T16:22:58.599Z,99079.88
2018-10-17T16:25:30.753Z,99078.89
2018-10-17T16:28:02.929Z,99079.77
2018-10-17T16:30:35.535Z,99080.33
2018-10-17T16:33:07.609Z,99081.59
2018-10-17T16:35:39.547Z,99077.33
2018-10-17T16:38:11.692Z,99080.26
2018-10-17T16:40:43.736Z,99076.68
2018-10-17T16:43:16.045Z,99080.14
2018-10-17T16:45:47.933Z,99082.80
2018-10-17T16:48:20.208Z,99080.50
2018-10-17T16:50:52.436Z,99080.80
2018-10-17T16:53:24.598Z,99079.13
2018-10-17T16:55:56.798Z,99084.33
2018-10-17T16:58:29.485Z,99088.65
2018-10-17T17:01:02.128Z,99087.36
2018-10-17T17:03:34.283Z,99089.17
2018-10-17T17:06:06.198Z,99090.02
2018-10-17T17:08:38.506Z,99090.85
2018-10-17T17:11:09.950Z,99094.06
2018-10-17T17:13:41.597Z,99089.05
2018-10-17T17:16:13.025Z,99084.86
2018-10-17T17:18:45.284Z,99088.22
2018-10-17T17:21:17.466Z,99085.83
2018-10-17T17:23:49.644Z,99092.39
2018-10-17T17:26:21.790Z,99090.30
2018-10-17T17:28:53.967Z,99086.65
2018-10-17T17:31:26.444Z,99089.72
2018-10-17T17:33:59.682Z,99085.83
2018-10-17T17:36:31.950Z,99090.97
2018-10-17T17:39:04.675Z,99087.78
2018-10-17T17:41:36.693Z,99081.20
2018-10-17T17:44:08.503Z,99084.75
2018-10-17T17:46:40.692Z,99083.98
2018-10-17T17:49:12.861Z,99087.43
2018-10-17T17:51:44.695Z,99084.43
2018-10-17T17:54:16.828Z,99080.63
2018-10-17T17:56:48.859Z,99082.73
2018-10-17T17:59:22.570Z,99078.64
2018-10-17T18:01:55.286Z,99083.40
2018-10-17T18:04:27.623Z,99083.22
2018-10-17T18:06:59.811Z,99086.52
2018-10-17T18:09:31.572Z,99081.82
2018-10-17T18:12:03.559Z,99086.39
2018-10-17T18:14:35.825Z,99081.59
2018-10-17T18:17:07.815Z,99080.91
2018-10-17T18:19:40.035Z,99081.28
2018-10-17T18:22:11.755Z,99082.73
2018-10-17T18:24:43.889Z,99076.05
2018-10-17T18:27:15.835Z,99075.04
2018-10-17T18:29:48.108Z,99079.37
2018-10-17T18:32:21.722Z,99079.37
2018-10-17T18:34:53.875Z,99075.41
2018-10-17T18:37:25.864Z,99079.86
2018-10-17T18:39:57.794Z,99076.05
2018-10-17T18:42:29.695Z,99074.78
2018-10-17T18:45:01.899Z,99070.14
2018-10-17T18:47:33.727Z,99076.91
2018-10-17T18:50:05.884Z,99070.34
2018-10-17T18:52:37.968Z,99074.26
2018-10-17T18:55:10.200Z,99071.98
2018-10-17T18:57:42.214Z,99065.91
2018-10-17T19:00:15.388Z,99071.56
2018-10-17T19:02:47.936Z,99068.56
2018-10-17T19:05:19.937Z,99068.06
2018-10-17T19:07:52.044Z,99060.38
2018-10-17T19:10:24.173Z,99061.36
2018-10-17T19:12:56.952Z,99063.01
2018-10-17T19:15:29.020Z,99056.56
2018-10-17T19:18:00.970Z,99067.98
2018-10-17T19:20:33.038Z,99062.70
2018-10-17T19:23:05.347Z,99058.13
2018-10-17T19:25:37.620Z,99057.77
2018-10-17T19:28:09.532Z,99055.61
2018-10-17T19:30:41.644Z,99058.26
2018-10-17T19:33:14.392Z,99056.45
2018-10-17T19:35:46.665Z,99059.45
2018-10-17T19:38:18.833Z,99053.12
2018-10-17T19:40:51.103Z,99051.81
2018-10-17T19:43:23.274Z,99056.30
2018-10-17T19:45:55.380Z,99047.45
2018-10-17T19:48:27.504Z,99053.17
2018-10-17T19:51:00.075Z,99051.05
2018-10-17T19:53:32.223Z,99049.93
2018-10-17T19:56:04.426Z,99051.38
2018-10-17T19:58:36.586Z,99047.69
2018-10-17T20:01:09.571Z,99044.45
2018-10-17T20:03:42.091Z,99049.05
2018-10-17T20:06:14.276Z,99042.94
2018-10-17T20:08:46.309Z,99042.81
2018-10-17T20:11:18.839Z,99035.84
2018-10-17T20:13:50.781Z,99041.53
2018-10-17T20:16:22.777Z,99037.33
2018-10-17T20:18:54.730Z,99035.66
2018-10-17T20:21:26.974Z,99041.33
2018-10-17T20:23:59.562Z,99037.06
2018-10-17T20:26:31.981Z,99033.37
2018-10-17T20:29:04.032Z,99035.17
2018-10-17T20:31:36.016Z,99031.94
2018-10-17T20:34:08.624Z,99037.36
2018-10-17T20:36:40.748Z,99041.94
2018-10-17T20:39:14.647Z,99033.30
2018-10-17T20:41:46.702Z,99038.47
2018-10-17T20:44:18.636Z,99039.64
2018-10-17T20:46:50.968Z,99034.95
2018-10-17T20:50:46.980Z,99043.36
2018-10-17T20:53:19.086Z,99040.43
2018-10-17T20:55:51.202Z,99039.26
2018-10-17T20:58:23.169Z,99032.45
2018-10-17T21:00:55.363Z,99041.13
2018-10-17T21:03:27.542Z,99040.88
2018-10-17T21:06:00.041Z,99042.11
2018-10-17T21:08:32.030Z,99040.06
2018-10-17T21:11:04.056Z,99036.97
2018-10-17T21:13:36.315Z,99036.59
2018-10-17T21:16:08.337Z,99041.27
2018-10-17T21:18:40.434Z,99038.88
2018-10-17T21:21:12.507Z,99034.95
2018-10-17T21:23:44.721Z,99038.55
2018-10-17T21:26:16.569Z,99032.66
2018-10-17T21:28:48.614Z,99036.49
2018-10-17T21:31:20.449Z,99033.49
2018-10-17T21:33:52.524Z,99036.87
2018-10-17T21:36:25.047Z,99036.75
2018-10-17T21:38:57.144Z,99042.76
2018-10-17T21:41:29.277Z,99037.97
2018-10-17T21:44:01.934Z,99033.63
2018-10-17T21:46:34.071Z,99039.13
2018-10-17T21:49:06.197Z,99037.80
2018-10-17T21:51:38.427Z,99042.34
2018-10-17T21:54:10.499Z,99042.03
2018-10-17T21:56:42.361Z,99043.05
2018-10-17T21:59:14.418Z,99052.74
2018-10-17T22:01:46.342Z,99064.44
2018-10-17T22:04:18.948Z,99066.11
2018-10-17T22:06:51.520Z,99060.97
2018-10-17T22:09:23.733Z,99068.75
2018-10-17T22:11:55.743Z,99072.22
2018-10-17T22:14:27.887Z,99073.39
2018-10-17T22:17:06.623Z,99070.64
2018-10-17T22:19:39.581Z,99074.95
2018-10-17T22:22:11.721Z,99084.86
2018-10-17T22:24:43.921Z,99079.19
2018-10-17T22:27:16.021Z,99079.30
2018-10-17T22:29:47.907Z,99077.88
2018-10-17T22:32:19.899Z,99073.73
2018-10-17T22:34:51.959Z,99074.39
2018-10-17T22:37:24.491Z,99077.14
2018-10-17T22:39:56.737Z,99075.37
2018-10-17T22:42:29.658Z,99072.72
2018-10-17T22:45:01.734Z,99075.84
2018-10-17T22:47:33.709Z,99081.47
2018-10-17T22:50:05.865Z,99076.30
2018-10-17T22:52:38.202Z,99079.83
2018-10-17T22:55:15.166Z,99088.20
2018-10-17T22:57:47.351Z,99081.85
2018-10-17T23:00:19.450Z,99083.62
2018-10-17T23:02:51.408Z,99088.94
2018-10-17T23:05:23.447Z,99088.27
2018-10-17T23:07:56.033Z,99086.47
2018-10-17T23:10:28.718Z,99087.58
2018-10-17T23:13:00.801Z,99095.45
2018-10-17T23:15:32.996Z,99092.11
2018-10-17T23:18:05.069Z,99094.33
2018-10-17T23:20:37.327Z,99099.98
2018-10-17T23:23:09.360Z,99106.30
2018-10-17T23:27:05.652Z,99109.46
2018-10-17T23:29:37.833Z,99114.78
2018-10-17T23:32:09.911Z,99115.94
2018-10-17T23:34:41.911Z,99122.63
2018-10-17T23:37:14.067Z,99121.31
2018-10-17T23:39:46.471Z,99121.80
2018-10-17T23:42:19.241Z,99122.75
2018-10-17T23:44:51.394Z,99131.47
2018-10-17T23:47:23.260Z,99127.20
2018-10-17T23:49:55.186Z,99140.36
2018-10-17T23:52:27.187Z,99138.68
2018-10-17T23:54:59.158Z,99146.89
2018-10-17T23:57:31.528Z,99148.13
